Fujairah International Airport
OMFJ : now visible

Airfield :











YOU CAN JOIN US ON...

 
LOGIN :

Register | Disclaimer

   EN    FR    IT 

 









Legend :    VFR   Marginal VFR   IFR   Intensive IFR   Very Intensive IFR
Visi :
Ceiling :
>= 8 km
>= 3000ft
5 to 8 km
1000 to 3000 ft
1500m to 5 km
500 to 1000 ft
800 to 1500m
200 to 500 ft
< 800m
< 200 ft
Symbols :   Thunderstorms  Fog  Heavy snow  Heavy precipitations  Wind > 20 kt







- Airport Elevation : 152 ft
- IATA code : FJR


OMFJ - Fujairah International

CURRENT METAR :
  • 190100Z 29008KT 260V320 8000 NSC 19/12 Q1014 A2994

EXPIRED METARs :
  • 190000Z 30012KT 270V340 CAVOK 19/12 Q1014 A2995
  • 182300Z 30015G27KT 270V350 CAVOK 20/11 Q1014 A2994

TAF TAF OMFJ
Valid from the 19 at 00:00 until the 20 at 06:00 UTC


182300Z 1900/2006 29014KT 8000 NSC
PROB30 1900/1912 29015G27KT 5000 BLDU
OMAE FIR / Asia



MET'MAP, your aeronautical weather chart ! - Copyright ORBIFLY December 2007 - Disclaimer

ORBIFLY MET'MAP TEAM :

Programming & Development : Alexandra Zaïnal
Concept & Development : Baudouin d'Aumeries
Co-Development & Prog : Marc-Olivier Méhu
Technical & hardware support : Manuel Goepfert

Contact : metmap@orbifly.com




SOURCES & CREDITS :

   NOAA       Earth
Advisory